createdAt,value
2019-01-02T00:00:36.697Z,6.61
2019-01-02T00:04:02.226Z,7.04
2019-01-02T00:07:27.775Z,6.92
2019-01-02T00:10:53.324Z,6.91
2019-01-02T00:14:19.011Z,7.16
2019-01-02T00:17:44.913Z,7.21
2019-01-02T00:21:10.823Z,7.02
2019-01-02T00:24:36.344Z,7.21
2019-01-02T00:28:02.488Z,7.05
2019-01-02T00:31:28.096Z,7.08
2019-01-02T00:34:53.663Z,7.32
2019-01-02T00:38:19.517Z,7.14
2019-01-02T00:41:45.195Z,7.33
2019-01-02T00:45:10.963Z,7.19
2019-01-02T00:48:36.877Z,7.11
2019-01-02T00:52:02.422Z,7.12
2019-01-02T00:55:28.036Z,6.93
2019-01-02T00:58:53.875Z,7.33
2019-01-02T01:02:19.452Z,7.07
2019-01-02T01:05:44.979Z,7.32
2019-01-02T01:09:10.513Z,7.33
2019-01-02T01:12:36.077Z,7.03
2019-01-02T01:16:01.605Z,7.10
2019-01-02T01:19:27.454Z,7.19
2019-01-02T01:22:53.009Z,7.40
2019-01-02T01:26:18.960Z,7.17
2019-01-02T01:29:44.879Z,7.32
2019-01-02T01:33:10.439Z,7.36
2019-01-02T01:36:35.974Z,6.98
2019-01-02T01:40:01.895Z,6.96
2019-01-02T01:43:28.140Z,6.90
2019-01-02T01:46:53.661Z,6.84
2019-01-02T01:50:19.496Z,6.91
2019-01-02T01:53:45.050Z,7.13
2019-01-02T01:57:10.904Z,6.89
2019-01-02T02:00:37.028Z,7.15
2019-01-02T02:04:02.555Z,7.21
2019-01-02T02:07:28.404Z,6.96
2019-01-02T02:10:54.221Z,7.02
2019-01-02T02:14:19.799Z,7.13
2019-01-02T02:17:45.412Z,6.84
2019-01-02T02:21:11.227Z,6.75
2019-01-02T02:24:36.794Z,6.90
2019-01-02T02:28:02.897Z,7.13
2019-01-02T02:31:28.418Z,7.05
2019-01-02T02:34:54.291Z,7.24
2019-01-02T02:38:19.853Z,6.77
2019-01-02T02:41:45.845Z,6.98
2019-01-02T02:45:12.775Z,7.15
2019-01-02T02:48:39.015Z,6.84
2019-01-02T02:52:04.903Z,7.04
2019-01-02T02:55:30.470Z,6.96
2019-01-02T02:58:56.798Z,7.02
2019-01-02T03:02:22.751Z,7.13
2019-01-02T03:05:48.308Z,7.05
2019-01-02T03:09:13.862Z,6.92
2019-01-02T03:12:39.408Z,6.73
2019-01-02T03:16:05.231Z,6.85
2019-01-02T03:19:31.381Z,7.08
2019-01-02T03:22:57.362Z,7.14
2019-01-02T03:26:23.469Z,6.94
2019-01-02T03:29:49.049Z,7.04
2019-01-02T03:33:14.607Z,6.53
2019-01-02T03:36:40.127Z,7.35
2019-01-02T03:40:06.394Z,7.21
2019-01-02T03:43:31.920Z,7.13
2019-01-02T03:46:57.492Z,7.26
2019-01-02T03:50:23.089Z,7.21
2019-01-02T03:53:48.648Z,7.34
2019-01-02T03:57:14.231Z,7.42
2019-01-02T04:00:39.792Z,6.99
2019-01-02T04:04:05.414Z,7.05
2019-01-02T04:07:31.242Z,7.03
2019-01-02T04:10:57.059Z,7.14
2019-01-02T04:14:22.593Z,6.98
2019-01-02T04:17:48.461Z,7.20
2019-01-02T04:21:14.293Z,7.08
2019-01-02T04:24:39.863Z,7.02
2019-01-02T04:28:05.403Z,7.04
2019-01-02T04:31:30.949Z,7.22
2019-01-02T04:34:56.613Z,7.33
2019-01-02T04:38:22.154Z,7.53
2019-01-02T04:41:47.703Z,7.52
2019-01-02T04:45:13.308Z,7.55
2019-01-02T04:48:38.834Z,7.30
2019-01-02T04:52:04.373Z,7.13
2019-01-02T04:55:30.163Z,7.31
2019-01-02T04:58:56.051Z,7.26
2019-01-02T05:02:21.608Z,7.14
2019-01-02T05:05:47.145Z,7.27
2019-01-02T05:09:12.694Z,7.45
2019-01-02T05:12:38.246Z,7.34
2019-01-02T05:16:04.041Z,7.09
2019-01-02T05:19:29.585Z,7.28
2019-01-02T05:22:55.103Z,7.13
2019-01-02T05:26:20.767Z,7.25
2019-01-02T05:29:46.310Z,7.15
2019-01-02T05:33:11.830Z,6.91
2019-01-02T05:36:37.361Z,7.17
2019-01-02T05:40:02.920Z,6.94
2019-01-02T05:43:28.454Z,7.13
2019-01-02T05:46:54.003Z,7.25
2019-01-02T05:50:19.563Z,7.30
2019-01-02T05:53:45.148Z,7.24
2019-01-02T05:57:10.722Z,7.18
2019-01-02T06:00:39.789Z,7.35
2019-01-02T06:04:03.852Z,7.32
2019-01-02T06:07:29.374Z,7.21
2019-01-02T06:10:54.942Z,7.14
2019-01-02T06:14:20.729Z,7.27
2019-01-02T06:17:46.318Z,7.14
2019-01-02T06:21:11.867Z,7.09
2019-01-02T06:24:37.377Z,7.05
2019-01-02T06:28:02.962Z,7.00
2019-01-02T06:31:28.485Z,6.93
2019-01-02T06:34:54.034Z,6.78
2019-01-02T06:38:19.563Z,6.84
2019-01-02T06:41:45.141Z,6.90
2019-01-02T06:45:13.854Z,6.97
2019-01-02T06:48:39.400Z,7.17
2019-01-02T06:52:04.949Z,7.32
2019-01-02T06:55:30.623Z,7.29
2019-01-02T06:58:56.176Z,7.17
2019-01-02T07:02:21.706Z,6.99
2019-01-02T07:05:47.289Z,6.90
2019-01-02T07:09:12.832Z,7.10
2019-01-02T07:12:38.379Z,6.99
2019-01-02T07:16:04.180Z,7.18
2019-01-02T07:19:29.714Z,7.30
2019-01-02T07:22:55.223Z,7.15
2019-01-02T07:26:21.166Z,7.42
2019-01-02T07:29:46.676Z,7.43
2019-01-02T07:33:12.232Z,7.33
2019-01-02T07:37:32.874Z,7.29
2019-01-02T07:41:52.654Z,7.31
2019-01-02T07:46:26.797Z,7.22
2019-01-02T07:51:00.221Z,7.16
2019-01-02T07:55:32.825Z,7.13
2019-01-02T08:00:02.359Z,7.49
2019-01-02T08:04:42.511Z,7.31
2019-01-02T08:09:07.264Z,7.42
2019-01-02T08:13:27.273Z,7.54
2019-01-02T08:17:54.457Z,7.57
2019-01-02T08:22:21.849Z,7.53
2019-01-02T08:26:45.391Z,7.52
2019-01-02T08:31:05.812Z,7.51
2019-01-02T08:36:10.581Z,7.59
2019-01-02T08:40:15.246Z,7.65
2019-01-02T08:44:52.198Z,7.55
2019-01-02T08:49:05.083Z,7.66
2019-01-02T08:53:30.236Z,7.78
2019-01-02T08:58:05.458Z,7.97
2019-01-02T09:02:40.925Z,7.72
2019-01-02T09:07:11.821Z,7.96
2019-01-02T09:11:56.125Z,7.66
2019-01-02T09:16:39.730Z,7.71
2019-01-02T09:20:51.506Z,7.84
2019-01-02T09:25:17.247Z,7.96
2019-01-02T09:29:45.920Z,7.93
2019-01-02T09:34:16.785Z,8.10
2019-01-02T09:38:47.066Z,7.85
2019-01-02T09:43:03.477Z,7.99
2019-01-02T09:47:17.419Z,8.09
2019-01-02T09:51:38.549Z,8.12
2019-01-02T09:55:56.911Z,8.49
2019-01-02T10:00:23.517Z,8.40
2019-01-02T10:04:37.990Z,9.13
2019-01-02T10:09:08.337Z,11.02
2019-01-02T10:13:34.846Z,13.10
2019-01-02T10:18:06.936Z,14.56
2019-01-02T10:22:16.893Z,15.44
2019-01-02T10:26:15.309Z,18.34
2019-01-02T10:30:57.361Z,17.56
2019-01-02T10:35:16.427Z,16.21
2019-01-02T10:39:27.275Z,15.74
2019-01-02T10:43:33.461Z,15.72
2019-01-02T10:47:17.225Z,13.43
2019-01-02T10:51:35.732Z,11.98
2019-01-02T10:56:03.784Z,11.25
2019-01-02T11:00:49.073Z,10.77
2019-01-02T11:04:45.332Z,10.95
2019-01-02T11:09:13.822Z,12.45
2019-01-02T11:13:50.000Z,13.46
2019-01-02T11:18:09.559Z,15.78
2019-01-02T11:22:27.471Z,15.35
2019-01-02T11:27:13.961Z,15.44
2019-01-02T11:31:44.219Z,16.08
2019-01-02T11:36:39.941Z,16.21
2019-01-02T11:40:55.548Z,16.45
2019-01-02T11:45:08.831Z,18.27
2019-01-02T11:48:34.393Z,18.71
2019-01-02T11:51:59.925Z,17.71
2019-01-02T11:55:25.470Z,17.77
2019-01-02T11:58:51.038Z,18.39
2019-01-02T12:02:16.860Z,17.03
2019-01-02T12:05:42.433Z,17.31
2019-01-02T12:09:10.591Z,15.65
2019-01-02T12:12:36.129Z,14.63
2019-01-02T12:16:01.700Z,15.38
2019-01-02T12:19:27.571Z,16.27
2019-01-02T12:22:53.129Z,16.89
2019-01-02T12:26:18.743Z,16.21
2019-01-02T12:29:47.477Z,17.80
2019-01-02T12:33:13.023Z,17.31
2019-01-02T12:36:38.574Z,15.30
2019-01-02T12:40:04.171Z,15.02
2019-01-02T12:43:29.731Z,14.89
2019-01-02T12:46:55.307Z,13.66
2019-01-02T12:50:20.899Z,15.16
2019-01-02T12:53:53.250Z,16.69
2019-01-02T12:57:18.823Z,17.74
2019-01-02T13:00:59.800Z,16.48
2019-01-02T13:05:03.303Z,15.36
2019-01-02T13:09:32.060Z,16.30
2019-01-02T13:13:30.501Z,16.57
2019-01-02T13:21:59.326Z,13.01
2019-01-02T13:26:18.846Z,12.46
2019-01-02T13:30:44.162Z,13.72
2019-01-02T13:35:09.042Z,12.95
2019-01-02T13:38:50.854Z,12.27
2019-01-02T13:43:16.893Z,12.26
2019-01-02T13:47:43.842Z,12.21
2019-01-02T13:51:16.054Z,14.32
2019-01-02T13:54:41.783Z,15.16
2019-01-02T13:58:07.404Z,16.07
2019-01-02T14:01:33.779Z,15.83
2019-01-02T14:04:59.703Z,15.67
2019-01-02T14:08:25.286Z,15.58
2019-01-02T14:11:50.803Z,15.01
2019-01-02T14:15:16.384Z,14.77
2019-01-02T14:18:41.977Z,14.12
2019-01-02T14:22:07.568Z,13.53
2019-01-02T14:25:33.111Z,13.89
2019-01-02T14:28:58.675Z,13.67
2019-01-02T14:32:24.201Z,13.48
2019-01-02T14:35:49.755Z,12.93
2019-01-02T14:39:15.575Z,12.75
2019-01-02T14:42:41.140Z,12.52
2019-01-02T14:46:06.713Z,11.78
2019-01-02T14:49:32.351Z,11.36
2019-01-02T14:52:58.144Z,11.07
2019-01-02T14:56:23.966Z,11.03
2019-01-02T14:59:49.510Z,10.54
2019-01-02T15:03:15.355Z,10.10
2019-01-02T15:06:40.907Z,9.83
2019-01-02T15:10:10.649Z,10.01
2019-01-02T15:13:36.451Z,9.79
2019-01-02T15:17:01.989Z,9.62
2019-01-02T15:20:27.822Z,9.57
2019-01-02T15:23:53.362Z,9.42
2019-01-02T15:27:19.502Z,9.54
2019-01-02T15:30:45.033Z,9.33
2019-01-02T15:34:10.591Z,9.32
2019-01-02T15:37:36.184Z,9.37
2019-01-02T15:41:03.012Z,8.96
2019-01-02T15:44:28.583Z,8.83
2019-01-02T15:47:54.169Z,8.82
2019-01-02T15:51:19.774Z,8.87
2019-01-02T15:54:45.752Z,8.71
2019-01-02T15:58:11.514Z,8.66
2019-01-02T16:01:37.101Z,8.55
2019-01-02T16:05:02.924Z,8.39
2019-01-02T16:08:28.977Z,8.16
2019-01-02T16:11:54.607Z,8.21
2019-01-02T16:15:20.153Z,7.98
2019-01-02T16:18:45.694Z,7.99
2019-01-02T16:22:11.253Z,7.84
2019-01-02T16:25:36.830Z,7.60
2019-01-02T16:29:02.371Z,7.42
2019-01-02T16:32:27.969Z,7.30
2019-01-02T16:35:53.532Z,7.31
2019-01-02T16:39:19.101Z,7.32
2019-01-02T16:42:44.671Z,7.28
2019-01-02T16:46:10.509Z,7.14
2019-01-02T16:49:36.076Z,7.05
2019-01-02T16:53:02.505Z,6.88
2019-01-02T16:56:28.087Z,6.73
2019-01-02T16:59:53.634Z,6.65
2019-01-02T17:03:19.448Z,6.68
2019-01-02T17:06:44.972Z,6.64
2019-01-02T17:10:12.439Z,6.51
2019-01-02T17:13:38.012Z,6.41
2019-01-02T17:17:03.657Z,6.47
2019-01-02T17:20:29.321Z,6.41
2019-01-02T17:23:54.897Z,6.35
2019-01-02T17:27:20.451Z,6.26
2019-01-02T17:30:46.015Z,6.18
2019-01-02T17:34:12.254Z,6.09
2019-01-02T17:37:38.466Z,6.13
2019-01-02T17:41:04.087Z,6.21
2019-01-02T17:44:29.979Z,6.09
2019-01-02T17:47:55.605Z,6.08
2019-01-02T17:51:21.191Z,6.10
2019-01-02T17:54:46.741Z,5.92
2019-01-02T17:58:12.297Z,6.21
2019-01-02T18:01:38.196Z,6.04
2019-01-02T18:05:04.001Z,6.04
2019-01-02T18:08:29.578Z,5.97
2019-01-02T18:11:55.208Z,5.88
2019-01-02T18:15:21.292Z,5.68
2019-01-02T18:18:46.876Z,5.63
2019-01-02T18:22:13.808Z,5.64
2019-01-02T18:25:39.480Z,5.66
2019-01-02T18:29:05.502Z,5.53
2019-01-02T18:32:31.190Z,5.36
2019-01-02T18:35:56.766Z,5.34
2019-01-02T18:39:22.337Z,5.29
2019-01-02T18:42:47.906Z,5.38
2019-01-02T18:46:13.495Z,5.05
2019-01-02T18:49:39.566Z,4.99
2019-01-02T18:53:05.148Z,5.01
2019-01-02T18:56:31.348Z,4.93
2019-01-02T18:59:56.907Z,4.90
2019-01-02T19:03:22.751Z,4.90
2019-01-02T19:06:48.377Z,4.80
2019-01-02T19:10:13.958Z,4.67
2019-01-02T19:13:42.671Z,4.62
2019-01-02T19:17:08.368Z,4.55
2019-01-02T19:20:34.258Z,4.48
2019-01-02T19:23:59.933Z,4.45
2019-01-02T19:27:25.759Z,4.37
2019-01-02T19:30:51.356Z,4.53
2019-01-02T19:34:16.867Z,4.28
2019-01-02T19:37:42.665Z,4.25
2019-01-02T19:41:08.278Z,4.22
2019-01-02T19:44:33.846Z,4.26
2019-01-02T19:47:59.519Z,4.42
2019-01-02T19:51:25.242Z,4.46
2019-01-02T19:54:50.845Z,4.58
2019-01-02T19:58:16.580Z,4.79
2019-01-02T20:01:42.173Z,4.74
2019-01-02T20:05:08.032Z,4.72
2019-01-02T20:08:33.747Z,4.78
2019-01-02T20:11:59.441Z,4.73
2019-01-02T20:15:25.317Z,4.75
2019-01-02T20:18:51.068Z,4.83
2019-01-02T20:22:16.634Z,4.90
2019-01-02T20:25:42.188Z,4.92
2019-01-02T20:29:08.130Z,4.88
2019-01-02T20:32:34.191Z,4.89
2019-01-02T20:35:59.820Z,4.87
2019-01-02T20:39:25.493Z,4.93
2019-01-02T20:42:51.304Z,4.77
2019-01-02T20:46:17.187Z,4.78
2019-01-02T20:49:43.061Z,4.95
2019-01-02T20:53:08.657Z,4.76
2019-01-02T20:56:34.790Z,4.89
2019-01-02T21:00:00.809Z,4.73
2019-01-02T21:03:26.414Z,4.75
2019-01-02T21:06:52.052Z,5.13
2019-01-02T21:10:17.824Z,4.94
2019-01-02T21:13:43.741Z,5.02
2019-01-02T21:17:09.433Z,4.89
2019-01-02T21:20:35.391Z,4.96
2019-01-02T21:24:00.976Z,4.66
2019-01-02T21:27:26.727Z,4.49
2019-01-02T21:30:52.281Z,4.37
2019-01-02T21:34:17.880Z,4.31
2019-01-02T21:37:43.637Z,4.26
2019-01-02T21:41:09.367Z,4.07
2019-01-02T21:44:35.264Z,3.97
2019-01-02T21:48:01.122Z,3.82
2019-01-02T21:51:26.727Z,3.77
2019-01-02T21:54:52.346Z,3.69
2019-01-02T21:58:17.969Z,3.64
2019-01-02T22:01:43.811Z,3.73
2019-01-02T22:05:12.579Z,3.48
2019-01-02T22:12:15.386Z,3.39
2019-01-02T22:15:47.603Z,3.46
2019-01-02T22:19:13.359Z,3.39
2019-01-02T22:22:38.962Z,3.34
2019-01-02T22:26:04.533Z,3.34
2019-01-02T22:29:30.450Z,3.33
2019-01-02T22:32:56.064Z,3.55
2019-01-02T22:36:21.685Z,3.54
2019-01-02T22:39:47.784Z,3.57
2019-01-02T22:43:13.349Z,3.69
2019-01-02T22:46:38.966Z,3.85
2019-01-02T22:50:05.459Z,3.79
2019-01-02T22:53:31.028Z,3.84
2019-01-02T22:56:56.637Z,3.92
2019-01-02T23:00:41.321Z,4.00
2019-01-02T23:04:23.048Z,4.02
2019-01-02T23:08:13.734Z,4.07
2019-01-02T23:12:01.183Z,4.22
2019-01-02T23:15:54.548Z,4.23
2019-01-02T23:19:47.710Z,4.36
2019-01-02T23:23:34.977Z,4.35
2019-01-02T23:27:34.526Z,4.40
2019-01-02T23:31:25.097Z,4.51
2019-01-02T23:35:18.346Z,4.57
2019-01-02T23:39:17.742Z,4.47
2019-01-02T23:43:00.660Z,4.50
2019-01-02T23:46:45.138Z,4.57
2019-01-02T23:50:35.085Z,4.60
2019-01-02T23:54:19.494Z,4.92
2019-01-02T23:58:07.216Z,4.85
